createdAt,value
2018-10-05T00:00:40.099Z,6.67
2018-10-05T00:03:09.484Z,5.70
2018-10-05T00:05:38.789Z,6.37
2018-10-05T00:08:08.190Z,5.90
2018-10-05T00:10:37.592Z,6.37
2018-10-05T00:13:07.234Z,5.87
2018-10-05T00:15:36.607Z,5.83
2018-10-05T00:18:06.041Z,5.70
2018-10-05T00:20:35.473Z,5.73
2018-10-05T00:23:04.806Z,5.93
2018-10-05T00:25:34.207Z,5.80
2018-10-05T00:28:03.867Z,4.90
2018-10-05T00:30:33.216Z,5.53
2018-10-05T00:33:02.822Z,5.40
2018-10-05T00:35:32.224Z,5.53
2018-10-05T00:38:01.681Z,5.53
2018-10-05T00:40:30.923Z,6.23
2018-10-05T00:43:00.328Z,7.20
2018-10-05T00:45:29.732Z,7.73
2018-10-05T00:47:59.028Z,6.90
2018-10-05T00:50:28.327Z,7.30
2018-10-05T00:52:57.788Z,6.83
2018-10-05T00:55:27.234Z,6.70
2018-10-05T00:57:56.738Z,5.93
2018-10-05T01:00:26.144Z,5.00
2018-10-05T01:02:55.503Z,5.37
2018-10-05T01:05:24.944Z,5.20
2018-10-05T01:07:54.447Z,5.00
2018-10-05T01:10:23.637Z,5.27
2018-10-05T01:12:53.150Z,5.67
2018-10-05T01:15:22.556Z,5.47
2018-10-05T01:17:51.956Z,4.77
2018-10-05T01:20:21.457Z,6.20
2018-10-05T01:22:50.961Z,6.23
2018-10-05T01:25:20.255Z,5.40
2018-10-05T01:27:49.560Z,5.90
2018-10-05T01:30:18.963Z,4.93
2018-10-05T01:32:48.364Z,5.57
2018-10-05T01:35:17.765Z,5.30
2018-10-05T01:37:47.222Z,5.53
2018-10-05T01:40:16.570Z,5.30
2018-10-05T01:42:45.776Z,6.17
2018-10-05T01:45:15.169Z,5.57
2018-10-05T01:47:44.579Z,5.30
2018-10-05T01:50:13.869Z,5.47
2018-10-05T01:52:43.171Z,5.30
2018-10-05T01:55:12.570Z,5.00
2018-10-05T01:57:42.074Z,5.23
2018-10-05T02:00:11.579Z,5.47
2018-10-05T02:02:41.337Z,5.50
2018-10-05T02:05:10.945Z,5.23
2018-10-05T02:07:40.399Z,6.40
2018-10-05T02:10:09.818Z,7.37
2018-10-05T02:12:39.202Z,7.03
2018-10-05T02:15:08.605Z,5.57
2018-10-05T02:17:38.006Z,5.77
2018-10-05T02:20:07.305Z,6.27
2018-10-05T02:22:36.810Z,5.80
2018-10-05T02:25:06.103Z,5.50
2018-10-05T02:27:36.126Z,5.30
2018-10-05T02:30:05.527Z,6.00
2018-10-05T02:32:34.930Z,5.23
2018-10-05T02:35:04.698Z,4.77
2018-10-05T02:37:34.042Z,5.13
2018-10-05T02:40:03.287Z,4.80
2018-10-05T02:42:32.641Z,5.80
2018-10-05T02:45:01.938Z,5.37
2018-10-05T02:47:31.236Z,4.50
2018-10-05T02:50:00.641Z,4.90
2018-10-05T02:52:30.144Z,5.17
2018-10-05T02:54:59.549Z,5.20
2018-10-05T02:57:28.845Z,5.50
2018-10-05T02:59:58.238Z,5.80
2018-10-05T03:02:31.791Z,6.50
2018-10-05T03:05:01.152Z,10.97
2018-10-05T03:07:31.242Z,12.20
2018-10-05T03:10:01.911Z,11.43
2018-10-05T03:12:31.398Z,11.40
2018-10-05T03:15:00.801Z,12.77
2018-10-05T03:17:30.201Z,14.87
2018-10-05T03:19:59.599Z,13.33
2018-10-05T03:22:28.799Z,14.53
2018-10-05T03:24:58.040Z,13.37
2018-10-05T03:27:27.400Z,13.60
2018-10-05T03:29:56.802Z,11.20
2018-10-05T03:32:26.102Z,10.43
2018-10-05T03:34:55.503Z,10.13
2018-10-05T03:37:25.419Z,8.87
2018-10-05T03:39:55.535Z,7.80
2018-10-05T03:42:24.936Z,7.70
2018-10-05T03:44:54.239Z,7.03
2018-10-05T03:47:23.740Z,7.00
2018-10-05T03:49:53.144Z,8.23
2018-10-05T03:52:22.543Z,6.93
2018-10-05T03:54:51.844Z,6.80
2018-10-05T03:57:21.028Z,6.77
2018-10-05T03:59:50.444Z,6.27
2018-10-05T04:02:19.844Z,7.13
2018-10-05T04:04:49.245Z,8.60
2018-10-05T04:07:18.547Z,8.93
2018-10-05T04:09:47.950Z,9.40
2018-10-05T04:12:17.348Z,9.00
2018-10-05T04:14:46.652Z,9.63
2018-10-05T04:17:16.049Z,12.00
2018-10-05T04:19:45.530Z,10.40
2018-10-05T04:22:19.154Z,9.23
2018-10-05T04:24:48.556Z,12.07
2018-10-05T04:27:18.032Z,12.33
2018-10-05T04:29:47.462Z,12.07
2018-10-05T04:32:16.779Z,10.87
2018-10-05T04:34:46.374Z,11.47
2018-10-05T04:37:16.078Z,10.73
2018-10-05T04:39:45.404Z,11.00
2018-10-05T04:42:14.777Z,9.30
2018-10-05T04:44:43.990Z,8.83
2018-10-05T04:47:13.786Z,8.50
2018-10-05T04:49:43.202Z,7.37
2018-10-05T04:52:12.496Z,7.40
2018-10-05T04:54:41.774Z,6.77
2018-10-05T04:57:11.191Z,7.57
2018-10-05T04:59:40.494Z,7.33
2018-10-05T05:02:09.889Z,6.77
2018-10-05T05:04:39.394Z,6.60
2018-10-05T05:07:09.001Z,6.30
2018-10-05T05:09:38.402Z,5.67
2018-10-05T05:12:07.866Z,5.87
2018-10-05T05:14:37.417Z,5.83
2018-10-05T05:17:06.927Z,5.60
2018-10-05T05:19:36.376Z,6.07
2018-10-05T05:22:05.869Z,6.23
2018-10-05T05:24:35.326Z,6.50
2018-10-05T05:27:04.831Z,6.97
2018-10-05T05:29:34.232Z,7.13
2018-10-05T05:32:03.736Z,6.80
2018-10-05T05:34:33.070Z,6.37
2018-10-05T05:37:02.437Z,6.80
2018-10-05T05:39:31.838Z,6.60
2018-10-05T05:42:01.168Z,6.00
2018-10-05T05:44:30.440Z,7.27
2018-10-05T05:46:59.877Z,6.27
2018-10-05T05:49:29.137Z,6.43
2018-10-05T05:51:58.549Z,6.30
2018-10-05T05:54:27.959Z,6.70
2018-10-05T05:56:57.136Z,6.70
2018-10-05T05:59:26.641Z,6.90
2018-10-05T06:01:56.117Z,7.27
2018-10-05T06:04:25.548Z,7.00
2018-10-05T06:06:54.951Z,6.03
2018-10-05T06:09:24.351Z,6.77
2018-10-05T06:11:53.649Z,6.70
2018-10-05T06:14:22.952Z,7.30
2018-10-05T06:16:52.353Z,6.17
2018-10-05T06:19:21.757Z,6.20
2018-10-05T06:21:51.302Z,6.10
2018-10-05T06:24:20.557Z,5.97
2018-10-05T06:26:49.961Z,7.10
2018-10-05T06:29:19.363Z,7.50
2018-10-05T06:31:48.865Z,6.40
2018-10-05T06:34:18.473Z,6.80
2018-10-05T06:36:47.782Z,8.57
2018-10-05T06:39:17.174Z,7.10
2018-10-05T06:41:46.788Z,6.90
2018-10-05T06:44:16.074Z,6.37
2018-10-05T06:46:45.583Z,6.30
2018-10-05T06:49:14.985Z,6.27
2018-10-05T06:51:44.386Z,6.07
2018-10-05T06:54:13.686Z,5.00
2018-10-05T06:56:42.990Z,5.60
2018-10-05T06:59:12.494Z,4.83
2018-10-05T07:01:42.025Z,4.63
2018-10-05T07:04:11.396Z,4.10
2018-10-05T07:06:40.797Z,4.40
2018-10-05T07:09:10.097Z,4.50
2018-10-05T07:11:39.349Z,4.30
2018-10-05T07:14:08.798Z,4.50
2018-10-05T07:16:38.180Z,4.80
2018-10-05T07:19:07.703Z,4.30
2018-10-05T07:21:37.106Z,4.60
2018-10-05T07:24:06.507Z,4.03
2018-10-05T07:26:35.842Z,4.33
2018-10-05T07:29:05.209Z,4.03
2018-10-05T07:31:34.448Z,4.47
2018-10-05T07:34:03.967Z,4.77
2018-10-05T07:36:33.416Z,4.27
2018-10-05T07:39:02.815Z,4.50
2018-10-05T07:41:32.217Z,4.23
2018-10-05T07:44:01.704Z,3.93
2018-10-05T07:46:31.328Z,3.70
2018-10-05T07:49:00.730Z,3.77
2018-10-05T07:51:30.951Z,4.03
2018-10-05T07:54:00.176Z,4.10
2018-10-05T07:56:29.651Z,4.43
2018-10-05T07:58:58.955Z,4.80
2018-10-05T08:01:28.361Z,5.50
2018-10-05T08:03:57.754Z,5.53
2018-10-05T08:06:26.935Z,6.60
2018-10-05T08:08:56.354Z,6.33
2018-10-05T08:11:25.756Z,6.47
2018-10-05T08:13:55.156Z,6.60
2018-10-05T08:16:24.451Z,6.57
2018-10-05T08:18:53.858Z,6.80
2018-10-05T08:21:23.166Z,6.60
2018-10-05T08:23:52.629Z,6.20
2018-10-05T08:26:21.860Z,6.20
2018-10-05T08:28:51.157Z,5.77
2018-10-05T08:31:20.560Z,5.30
2018-10-05T08:33:50.002Z,5.40
2018-10-05T08:36:19.361Z,4.30
2018-10-05T08:38:48.699Z,4.47
2018-10-05T08:41:18.065Z,3.67
2018-10-05T08:43:47.368Z,3.67
2018-10-05T08:46:16.766Z,4.00
2018-10-05T08:48:46.169Z,3.60
2018-10-05T08:51:15.569Z,3.67
2018-10-05T08:53:44.971Z,3.50
2018-10-05T08:56:14.165Z,3.77
2018-10-05T08:58:43.406Z,3.10
2018-10-05T09:01:12.768Z,3.30
2018-10-05T09:03:42.167Z,3.20
2018-10-05T09:06:11.570Z,3.00
2018-10-05T09:08:40.867Z,3.30
2018-10-05T09:11:10.386Z,3.20
2018-10-05T09:13:39.879Z,3.40
2018-10-05T09:16:09.233Z,3.20
2018-10-05T09:18:38.886Z,3.10
2018-10-05T09:21:08.399Z,3.00
2018-10-05T09:23:37.793Z,3.30
2018-10-05T09:26:07.092Z,3.20
2018-10-05T09:28:36.780Z,3.10
2018-10-05T09:31:06.207Z,2.87
2018-10-05T09:33:35.520Z,3.00
2018-10-05T09:36:05.011Z,3.03
2018-10-05T09:38:34.460Z,3.40
2018-10-05T09:41:03.712Z,3.20
2018-10-05T09:43:33.114Z,3.57
2018-10-05T09:46:02.618Z,3.53
2018-10-05T09:48:32.126Z,2.90
2018-10-05T09:51:01.628Z,3.60
2018-10-05T09:53:31.028Z,3.67
2018-10-05T09:56:00.430Z,3.08
2018-10-05T09:58:29.833Z,3.17
2018-10-05T10:02:08.253Z,3.72
2018-10-05T10:04:37.733Z,3.15
2018-10-05T10:07:07.151Z,3.30
2018-10-05T10:09:36.661Z,3.20
2018-10-05T10:12:06.171Z,3.50
2018-10-05T10:14:40.330Z,3.42
2018-10-05T10:17:09.597Z,3.17
2018-10-05T10:19:39.081Z,3.30
2018-10-05T10:22:08.692Z,2.90
2018-10-05T10:24:38.194Z,3.25
2018-10-05T10:27:07.593Z,3.20
2018-10-05T10:29:37.098Z,2.85
2018-10-05T10:32:06.705Z,2.90
2018-10-05T10:34:36.159Z,3.37
2018-10-05T10:37:05.597Z,3.08
2018-10-05T10:39:34.857Z,3.10
2018-10-05T10:42:04.224Z,3.00
2018-10-05T10:44:33.716Z,2.90
2018-10-05T10:47:03.091Z,3.15
2018-10-05T10:49:32.518Z,3.50
2018-10-05T10:52:02.023Z,3.35
2018-10-05T10:54:31.527Z,3.00
2018-10-05T10:57:01.032Z,3.05
2018-10-05T10:59:30.432Z,3.00
2018-10-05T11:02:00.043Z,3.22
2018-10-05T11:04:29.491Z,2.83
2018-10-05T11:06:58.843Z,3.00
2018-10-05T11:09:28.143Z,2.80
2018-10-05T11:11:57.544Z,2.75
2018-10-05T11:14:26.850Z,3.20
2018-10-05T11:16:56.320Z,2.90
2018-10-05T11:19:25.669Z,3.20
2018-10-05T11:21:55.049Z,3.08
2018-10-05T11:24:24.277Z,2.80
2018-10-05T11:26:53.752Z,2.75
2018-10-05T11:29:23.151Z,3.12
2018-10-05T11:31:52.452Z,2.90
2018-10-05T11:34:21.930Z,2.80
2018-10-05T11:36:51.356Z,3.00
2018-10-05T11:39:20.760Z,2.67
2018-10-05T11:41:49.988Z,2.33
2018-10-05T11:44:19.467Z,2.80
2018-10-05T11:46:48.862Z,2.37
2018-10-05T11:49:18.265Z,2.77
2018-10-05T11:51:48.075Z,2.47
2018-10-05T11:54:17.579Z,2.45
2018-10-05T11:56:47.156Z,2.70
2018-10-05T11:59:16.587Z,2.42
2018-10-05T12:01:46.121Z,2.10
2018-10-05T12:04:15.495Z,1.92
2018-10-05T12:06:45.073Z,2.00
2018-10-05T12:09:14.306Z,2.05
2018-10-05T12:11:43.644Z,2.02
2018-10-05T12:14:13.103Z,2.10
2018-10-05T12:16:42.504Z,2.05
2018-10-05T12:19:11.714Z,1.75
2018-10-05T12:21:41.220Z,2.17
2018-10-05T12:24:10.711Z,2.10
2018-10-05T12:26:40.254Z,1.92
2018-10-05T12:29:09.719Z,1.90
2018-10-05T12:31:39.121Z,1.98
2018-10-05T12:34:08.625Z,1.92
2018-10-05T12:36:38.077Z,1.70
2018-10-05T12:39:08.519Z,1.80
2018-10-05T12:41:38.636Z,2.00
2018-10-05T12:44:08.497Z,1.98
2018-10-05T12:46:38.217Z,2.00
2018-10-05T12:49:07.601Z,1.75
2018-10-05T12:51:36.996Z,1.70
2018-10-05T12:54:06.503Z,2.10
2018-10-05T12:56:35.905Z,2.17
2018-10-05T12:59:05.409Z,1.90
2018-10-05T13:01:34.913Z,2.12
2018-10-05T13:04:04.418Z,1.85
2018-10-05T13:06:33.845Z,1.70
2018-10-05T13:09:03.528Z,1.82
2018-10-05T13:11:33.133Z,1.85
2018-10-05T13:14:02.844Z,1.50
2018-10-05T13:16:32.245Z,1.80
2018-10-05T13:19:00.622Z,1.80
2018-10-05T13:21:29.901Z,1.85
2018-10-05T13:23:59.236Z,1.55
2018-10-05T13:26:28.532Z,1.60
2018-10-05T13:28:57.922Z,1.92
2018-10-05T13:31:27.236Z,1.95
2018-10-05T13:33:56.656Z,1.77
2018-10-05T13:36:26.031Z,1.60
2018-10-05T13:38:55.525Z,1.75
2018-10-05T13:41:24.928Z,1.75
2018-10-05T13:43:54.636Z,1.65
2018-10-05T13:46:24.111Z,1.80
2018-10-05T13:48:53.646Z,1.65
2018-10-05T13:51:23.147Z,1.80
2018-10-05T13:53:52.552Z,1.80
2018-10-05T13:56:21.949Z,1.72
2018-10-05T13:58:51.583Z,1.77
2018-10-05T14:01:21.167Z,1.70
2018-10-05T14:03:50.523Z,1.70
2018-10-05T14:06:19.975Z,1.42
2018-10-05T14:08:49.370Z,1.75
2018-10-05T14:11:18.582Z,1.60
2018-10-05T14:13:47.971Z,1.57
2018-10-05T14:16:17.380Z,1.80
2018-10-05T14:18:46.776Z,1.67
2018-10-05T14:21:16.280Z,1.40
2018-10-05T14:23:45.639Z,1.60
2018-10-05T14:26:15.196Z,1.20
2018-10-05T14:28:44.691Z,1.40
2018-10-05T14:31:13.005Z,1.55
2018-10-05T14:33:42.268Z,1.27
2018-10-05T14:36:11.770Z,1.50
2018-10-05T14:38:40.976Z,1.40
2018-10-05T14:41:10.472Z,1.55
2018-10-05T14:43:39.873Z,1.40
2018-10-05T14:46:09.380Z,1.47
2018-10-05T14:48:38.779Z,1.25
2018-10-05T14:51:08.385Z,1.65
2018-10-05T14:53:37.687Z,1.45
2018-10-05T14:56:06.923Z,1.40
2018-10-05T14:58:36.389Z,1.30
2018-10-05T15:01:05.789Z,1.40
2018-10-05T15:03:35.089Z,1.30
2018-10-05T15:06:04.434Z,1.30
2018-10-05T15:08:33.789Z,1.42
2018-10-05T15:11:03.186Z,1.20
2018-10-05T15:13:32.608Z,1.27
2018-10-05T15:16:01.915Z,1.40
2018-10-05T15:18:31.191Z,1.52
2018-10-05T15:21:00.699Z,1.30
2018-10-05T15:23:30.099Z,1.50
2018-10-05T15:25:59.398Z,1.35
2018-10-05T15:28:28.603Z,1.45
2018-10-05T15:30:57.998Z,1.20
2018-10-05T15:33:27.403Z,1.30
2018-10-05T15:35:56.700Z,1.32
2018-10-05T15:38:26.205Z,1.30
2018-10-05T15:40:55.708Z,1.37
2018-10-05T15:43:25.350Z,1.20
2018-10-05T15:46:00.151Z,1.30
2018-10-05T15:48:29.531Z,1.40
2018-10-05T15:50:58.948Z,1.35
2018-10-05T15:53:28.352Z,1.25
2018-10-05T15:55:57.707Z,1.37
2018-10-05T15:58:27.901Z,1.20
2018-10-05T16:00:57.480Z,1.60
2018-10-05T16:03:27.017Z,1.45
2018-10-05T16:05:56.616Z,1.50
2018-10-05T16:08:25.915Z,1.80
2018-10-05T16:11:01.847Z,1.57
2018-10-05T16:13:31.248Z,1.50
2018-10-05T16:16:00.652Z,1.47
2018-10-05T16:18:29.855Z,1.80
2018-10-05T16:20:59.248Z,1.77
2018-10-05T16:23:28.424Z,1.80
2018-10-05T16:25:57.883Z,1.70
2018-10-05T16:28:27.250Z,2.20
2018-10-05T16:31:00.836Z,1.80
2018-10-05T16:33:30.253Z,1.90
2018-10-05T16:35:59.757Z,2.40
2018-10-05T16:38:29.237Z,2.50
2018-10-05T16:40:58.666Z,1.90
2018-10-05T16:43:28.065Z,2.13
2018-10-05T16:45:57.467Z,2.10
2018-10-05T16:48:26.802Z,2.30
2018-10-05T16:50:56.270Z,2.23
2018-10-05T16:53:25.775Z,1.90
2018-10-05T16:55:56.611Z,1.80
2018-10-05T16:58:25.807Z,2.10
2018-10-05T17:00:55.135Z,2.17
2018-10-05T17:03:24.410Z,2.23
2018-10-05T17:05:54.833Z,2.27
2018-10-05T17:08:24.131Z,2.30
2018-10-05T17:10:53.542Z,2.40
2018-10-05T17:13:22.754Z,2.10
2018-10-05T17:15:52.133Z,2.10
2018-10-05T17:18:21.350Z,2.40
2018-10-05T17:20:50.703Z,2.27
2018-10-05T17:23:20.027Z,2.00
2018-10-05T17:25:49.434Z,2.07
2018-10-05T17:28:18.750Z,2.00
2018-10-05T17:30:48.237Z,1.93
2018-10-05T17:33:17.641Z,2.17
2018-10-05T17:35:47.053Z,2.20
2018-10-05T17:38:16.444Z,3.53
2018-10-05T17:40:45.845Z,2.60
2018-10-05T17:43:15.285Z,3.03
2018-10-05T17:45:44.961Z,8.20
2018-10-05T17:48:16.406Z,3.03
2018-10-05T17:50:45.911Z,2.87
2018-10-05T17:53:16.202Z,2.80
2018-10-05T17:55:46.119Z,2.60
2018-10-05T17:58:15.608Z,5.20
2018-10-05T18:00:47.103Z,3.00
2018-10-05T18:03:16.506Z,3.03
2018-10-05T18:05:46.208Z,2.87
2018-10-05T18:08:15.732Z,2.67
2018-10-05T18:10:45.429Z,2.90
2018-10-05T18:13:14.730Z,3.00
2018-10-05T18:15:44.231Z,2.90
2018-10-05T18:18:13.840Z,3.10
2018-10-05T18:20:43.235Z,2.57
2018-10-05T18:23:13.154Z,2.87
2018-10-05T18:25:43.683Z,3.10
2018-10-05T18:28:13.021Z,3.00
2018-10-05T18:30:42.395Z,3.20
2018-10-05T18:33:13.013Z,3.27
2018-10-05T18:35:42.928Z,3.53
2018-10-05T18:38:13.096Z,3.70
2018-10-05T18:40:42.961Z,3.90
2018-10-05T18:43:13.425Z,4.30
2018-10-05T18:45:42.687Z,3.80
2018-10-05T18:48:11.981Z,4.00
2018-10-05T18:50:41.492Z,4.67
2018-10-05T18:53:11.202Z,4.20
2018-10-05T18:55:40.601Z,4.70
2018-10-05T18:58:10.070Z,4.70
2018-10-05T19:00:39.559Z,4.80
2018-10-05T19:03:09.012Z,5.03
2018-10-05T19:05:38.517Z,5.03
2018-10-05T19:08:08.020Z,5.57
2018-10-05T19:10:38.461Z,5.70
2018-10-05T19:13:09.078Z,6.10
2018-10-05T19:15:38.786Z,6.10
2018-10-05T19:18:10.655Z,6.37
2018-10-05T19:20:40.253Z,6.20
2018-10-05T19:23:09.757Z,6.07
2018-10-05T19:25:39.224Z,5.93
2018-10-05T19:28:08.560Z,5.97
2018-10-05T19:30:38.027Z,5.97
2018-10-05T19:33:07.468Z,5.40
2018-10-05T19:35:36.755Z,5.07
2018-10-05T19:38:06.374Z,5.00
2018-10-05T19:40:35.987Z,5.17
2018-10-05T19:43:05.483Z,5.50
2018-10-05T19:45:34.988Z,5.17
2018-10-05T19:48:04.441Z,7.23
2018-10-05T19:50:33.793Z,6.43
2018-10-05T19:53:03.238Z,6.07
2018-10-05T19:55:33.825Z,6.80
2018-10-05T19:58:03.331Z,6.37
2018-10-05T20:00:32.731Z,6.50
2018-10-05T20:03:02.236Z,6.90
2018-10-05T20:05:31.547Z,6.10
2018-10-05T20:08:00.863Z,6.70
2018-10-05T20:10:30.307Z,7.10
2018-10-05T20:12:59.899Z,8.53
2018-10-05T20:15:29.348Z,8.60
2018-10-05T20:17:58.978Z,8.10
2018-10-05T20:20:28.254Z,8.20
2018-10-05T20:22:57.948Z,7.93
2018-10-05T20:25:27.181Z,6.97
2018-10-05T20:27:56.552Z,7.10
2018-10-05T20:30:25.771Z,8.40
2018-10-05T20:32:55.367Z,10.00
2018-10-05T20:35:24.974Z,9.20
2018-10-05T20:37:54.495Z,7.63
2018-10-05T20:40:23.884Z,7.20
2018-10-05T20:42:53.196Z,6.87
2018-10-05T20:45:22.786Z,7.20
2018-10-05T20:47:52.271Z,6.70
2018-10-05T20:50:21.556Z,6.57
2018-10-05T20:52:50.935Z,6.47
2018-10-05T20:55:20.293Z,6.83
2018-10-05T20:57:49.972Z,6.43
2018-10-05T21:00:19.404Z,7.30
2018-10-05T21:02:48.909Z,7.90
2018-10-05T21:05:18.208Z,6.50
2018-10-05T21:07:47.609Z,7.10
2018-10-05T21:10:17.591Z,6.67
2018-10-05T21:12:47.131Z,6.83
2018-10-05T21:15:16.462Z,6.50
2018-10-05T21:17:45.831Z,6.03
2018-10-05T21:20:16.631Z,6.67
2018-10-05T21:22:46.170Z,6.57
2018-10-05T21:25:15.859Z,6.00
2018-10-05T21:27:45.290Z,6.80
2018-10-05T21:30:14.889Z,6.37
2018-10-05T21:32:44.572Z,7.63
2018-10-05T21:35:14.205Z,10.03
2018-10-05T21:37:43.639Z,7.63
2018-10-05T21:40:13.218Z,6.43
2018-10-05T21:42:42.820Z,6.30
2018-10-05T21:45:13.453Z,6.80
2018-10-05T21:47:45.018Z,7.03
2018-10-05T21:50:14.521Z,6.50
2018-10-05T21:52:44.012Z,6.67
2018-10-05T21:55:13.518Z,6.60
2018-10-05T21:57:43.097Z,6.80
2018-10-05T22:00:12.730Z,6.67
2018-10-05T22:02:42.229Z,6.80
2018-10-05T22:05:11.496Z,6.17
2018-10-05T22:07:41.138Z,6.70
2018-10-05T22:10:11.462Z,6.20
2018-10-05T22:12:40.933Z,6.17
2018-10-05T22:15:10.249Z,6.40
2018-10-05T22:17:39.771Z,5.63
2018-10-05T22:20:10.256Z,5.70
2018-10-05T22:22:39.746Z,6.23
2018-10-05T22:25:09.066Z,6.53
2018-10-05T22:27:38.708Z,6.37
2018-10-05T22:30:08.570Z,6.37
2018-10-05T22:32:38.025Z,6.10
2018-10-05T22:35:07.479Z,6.23
2018-10-05T22:37:36.890Z,6.67
2018-10-05T22:40:06.434Z,5.57
2018-10-05T22:42:36.143Z,6.50
2018-10-05T22:45:05.548Z,5.67
2018-10-05T22:47:34.945Z,6.40
2018-10-05T22:50:04.450Z,5.30
2018-10-05T22:52:33.861Z,5.67
2018-10-05T22:55:03.358Z,5.53
2018-10-05T22:57:32.863Z,4.97
2018-10-05T23:00:02.469Z,5.20
2018-10-05T23:02:32.048Z,5.60
2018-10-05T23:05:01.390Z,5.47
2018-10-05T23:07:31.083Z,5.27
2018-10-05T23:10:00.391Z,5.17
2018-10-05T23:12:29.960Z,5.10
2018-10-05T23:14:59.503Z,4.90
2018-10-05T23:17:28.815Z,4.90
2018-10-05T23:19:58.298Z,4.67
2018-10-05T23:22:28.928Z,5.20
2018-10-05T23:24:58.415Z,4.70
2018-10-05T23:27:28.244Z,4.70
2018-10-05T23:29:57.696Z,4.60
2018-10-05T23:32:28.174Z,4.40
2018-10-05T23:34:57.576Z,4.90
2018-10-05T23:37:27.080Z,5.27
2018-10-05T23:39:56.788Z,4.90
2018-10-05T23:42:26.293Z,4.87
2018-10-05T23:44:55.741Z,4.77
2018-10-05T23:47:25.095Z,5.00
2018-10-05T23:49:54.548Z,4.37
2018-10-05T23:52:37.168Z,4.63
2018-10-05T23:55:07.023Z,4.87
2018-10-05T23:57:37.197Z,5.13
